Arcata Airport
KACV : now visible

Airfield :











YOU CAN JOIN US ON...

 
LOGIN :

Register | Disclaimer

   EN    FR    IT 

 









Legend :    VFR   Marginal VFR   IFR   Intensive IFR   Very Intensive IFR
Visi :
Ceiling :
>= 8 km
>= 3000ft
5 to 8 km
1000 to 3000 ft
1500m to 5 km
500 to 1000 ft
800 to 1500m
200 to 500 ft
< 800m
< 200 ft
Symbols :   Thunderstorms  Fog  Heavy snow  Heavy precipitations  Wind > 20 kt






- Airport Elevation : 221 ft
- IATA code : ACV


KACV - Arcata

CURRENT METAR :
  • 260053Z AUTO 33016KT 9SM CLR 14/12 A3004 RMK AO2 SLP179 T01440117

EXPIRED METARs :
  • 252353Z AUTO 33017G25KT 10SM FEW003 14/12 A3004 RMK AO2 SLP179 T01440117 10161 20139 55005
  • 252328Z AUTO 33017KT 10SM SCT003 15/12 A3004 RMK AO2 T01500122
  • 252253Z AUTO 33016KT 10SM CLR 14/12 A3004 RMK AO2 SLP178 T01440117

TAF KACV
Valid from the 26 at 00:00 until the 27 at 00:00 UTC


260032Z 2600/2624 33016KT P6SM SCT006
FM260400 34008KT 6SM BR BKN006
FM260800 VRB03KT 5SM BR OVC004
FM261400 00000KT 1SM BR OVC003
FM261700 31006KT 5SM BR OVC007
FM262000 32010KT P6SM FEW007
KZSE FIR / North America



MET'MAP, your aeronautical weather chart ! - Copyright ORBIFLY December 2007 - Disclaimer

ORBIFLY MET'MAP TEAM :

Programming & Development : Alexandra Zaïnal
Concept & original design : Baudouin d'Aumeries
Assistance for programming : Marc-Olivier Méhu
Technical & hardware support : Manuel Goepfert

Contact : metmap@orbifly.com




SOURCES & CREDITS :

   NOAA       Earth
Advisory